createdAt,value
2023-11-26T00:01:15.492Z,59.54
2023-11-26T00:03:41.891Z,59.37
2023-11-26T00:06:08.282Z,59.47
2023-11-26T00:08:34.644Z,59.42
2023-11-26T00:11:01.025Z,59.51
2023-11-26T00:13:27.409Z,60.21
2023-11-26T00:15:53.767Z,60.29
2023-11-26T00:18:20.207Z,60.05
2023-11-26T00:20:46.660Z,59.79
2023-11-26T00:23:13.130Z,59.77
2023-11-26T00:25:39.535Z,59.57
2023-11-26T00:28:05.906Z,59.35
2023-11-26T00:30:32.270Z,58.86
2023-11-26T00:32:58.643Z,58.85
2023-11-26T00:35:25.061Z,58.90
2023-11-26T00:37:51.481Z,58.71
2023-11-26T00:40:17.874Z,58.91
2023-11-26T00:42:44.248Z,58.53
2023-11-26T00:45:10.665Z,59.06
2023-11-26T00:47:37.115Z,58.74
2023-11-26T00:50:03.642Z,58.83
2023-11-26T00:52:30.036Z,58.55
2023-11-26T00:54:56.405Z,58.38
2023-11-26T00:57:22.774Z,58.66
2023-11-26T00:59:49.158Z,58.58
2023-11-26T01:02:15.666Z,58.34
2023-11-26T01:04:42.101Z,58.19
2023-11-26T01:07:08.500Z,58.75
2023-11-26T01:09:34.877Z,59.04
2023-11-26T01:12:01.248Z,59.20
2023-11-26T01:14:27.651Z,59.28
2023-11-26T01:16:54.170Z,58.78
2023-11-26T01:19:20.602Z,58.60
2023-11-26T01:21:46.974Z,58.20
2023-11-26T01:24:13.339Z,58.56
2023-11-26T01:26:39.723Z,59.16
2023-11-26T01:29:06.114Z,59.27
2023-11-26T01:31:32.529Z,59.16
2023-11-26T01:33:58.976Z,58.88
2023-11-26T01:36:25.354Z,59.74
2023-11-26T01:38:51.794Z,59.49
2023-11-26T01:41:18.220Z,59.48
2023-11-26T01:43:44.598Z,59.17
2023-11-26T01:46:11.016Z,59.05
2023-11-26T01:48:37.437Z,59.16
2023-11-26T01:51:03.818Z,59.53
2023-11-26T01:53:30.192Z,59.42
2023-11-26T01:55:56.586Z,59.26
2023-11-26T01:58:22.972Z,59.22
2023-11-26T02:00:49.359Z,59.44
2023-11-26T02:03:15.831Z,59.20
2023-11-26T02:05:42.291Z,59.17
2023-11-26T02:08:08.719Z,59.16
2023-11-26T02:10:35.134Z,58.95
2023-11-26T02:13:01.504Z,58.85
2023-11-26T02:15:27.879Z,58.80
2023-11-26T02:17:54.312Z,58.69
2023-11-26T02:20:20.753Z,58.94
2023-11-26T02:22:47.138Z,59.04
2023-11-26T02:25:13.510Z,59.45
2023-11-26T02:27:39.911Z,59.41
2023-11-26T02:30:06.303Z,59.19
2023-11-26T02:32:32.720Z,59.00
2023-11-26T02:34:59.144Z,59.25
2023-11-26T02:37:25.518Z,59.24
2023-11-26T02:39:51.903Z,58.85
2023-11-26T02:42:18.292Z,58.78
2023-11-26T02:44:44.686Z,58.73
2023-11-26T02:47:11.165Z,59.29
2023-11-26T02:49:37.564Z,59.07
2023-11-26T02:52:03.942Z,58.98
2023-11-26T02:54:30.332Z,58.77
2023-11-26T02:56:56.735Z,58.57
2023-11-26T02:59:23.206Z,58.64
2023-11-26T03:01:49.791Z,58.19
2023-11-26T03:04:16.271Z,58.13
2023-11-26T03:06:42.684Z,58.58
2023-11-26T03:09:09.050Z,58.39
2023-11-26T03:11:35.441Z,58.36
2023-11-26T03:14:01.835Z,58.38
2023-11-26T03:16:28.347Z,58.29
2023-11-26T03:18:54.782Z,58.47
2023-11-26T03:21:21.171Z,58.35
2023-11-26T03:23:47.546Z,58.25
2023-11-26T03:26:14.078Z,58.55
2023-11-26T03:28:40.493Z,58.38
2023-11-26T03:31:06.869Z,58.25
2023-11-26T03:33:33.291Z,57.89
2023-11-26T03:35:59.721Z,57.82
2023-11-26T03:38:26.156Z,58.26
2023-11-26T03:40:52.627Z,57.98
2023-11-26T03:43:19.067Z,58.29
2023-11-26T03:45:45.481Z,59.09
2023-11-26T03:48:11.888Z,59.76
2023-11-26T03:50:38.317Z,59.64
2023-11-26T03:53:04.733Z,59.97
2023-11-26T03:55:31.137Z,59.68
2023-11-26T03:57:57.555Z,59.56
2023-11-26T04:00:23.931Z,59.61
2023-11-26T04:02:50.413Z,59.15
2023-11-26T04:05:16.958Z,58.88
2023-11-26T04:07:43.389Z,59.00
2023-11-26T04:10:09.825Z,59.21
2023-11-26T04:12:36.247Z,58.72
2023-11-26T04:15:04.095Z,58.70
2023-11-26T04:17:32.212Z,58.77
2023-11-26T04:19:58.681Z,58.98
2023-11-26T04:22:25.144Z,59.27
2023-11-26T04:24:51.566Z,59.40
2023-11-26T04:27:17.957Z,59.02
2023-11-26T04:29:44.348Z,59.52
2023-11-26T04:32:10.751Z,59.11
2023-11-26T04:34:37.126Z,59.29
2023-11-26T04:37:03.490Z,59.22
2023-11-26T04:39:29.865Z,59.41
2023-11-26T04:41:56.229Z,59.43
2023-11-26T04:44:22.640Z,59.79
2023-11-26T04:46:49.069Z,59.25
2023-11-26T04:49:15.440Z,59.66
2023-11-26T04:51:41.819Z,59.49
2023-11-26T04:54:08.198Z,59.55
2023-11-26T04:56:34.603Z,59.45
2023-11-26T04:59:00.993Z,59.78
2023-11-26T05:01:27.431Z,59.80
2023-11-26T05:03:53.942Z,60.32
2023-11-26T05:06:20.382Z,60.61
2023-11-26T05:08:46.762Z,60.75
2023-11-26T05:11:13.172Z,60.27
2023-11-26T05:13:39.571Z,60.07
2023-11-26T05:16:05.953Z,59.94
2023-11-26T05:18:32.397Z,59.33
2023-11-26T05:20:58.794Z,59.38
2023-11-26T05:23:25.272Z,59.54
2023-11-26T05:25:51.675Z,59.36
2023-11-26T05:28:19.468Z,59.58
2023-11-26T05:30:45.976Z,59.27
2023-11-26T05:33:12.412Z,59.56
2023-11-26T05:35:38.819Z,59.58
2023-11-26T05:38:05.342Z,60.10
2023-11-26T05:40:31.800Z,59.82
2023-11-26T05:42:58.176Z,59.89
2023-11-26T05:45:24.570Z,59.92
2023-11-26T05:47:51.021Z,59.82
2023-11-26T05:50:17.557Z,59.26
2023-11-26T05:52:43.972Z,59.33
2023-11-26T05:55:10.356Z,59.28
2023-11-26T05:57:36.763Z,59.34
2023-11-26T06:00:03.178Z,59.00
2023-11-26T06:02:29.563Z,60.17
2023-11-26T06:04:55.994Z,60.16
2023-11-26T06:07:22.383Z,60.57
2023-11-26T06:09:48.775Z,60.70
2023-11-26T06:12:15.173Z,60.31
2023-11-26T06:14:41.560Z,60.49
2023-11-26T06:17:07.999Z,60.95
2023-11-26T06:19:34.406Z,61.55
2023-11-26T06:22:00.805Z,60.76
2023-11-26T06:24:27.201Z,61.31
2023-11-26T06:26:53.590Z,61.29
2023-11-26T06:29:19.979Z,61.12
2023-11-26T06:31:46.348Z,60.70
2023-11-26T06:34:12.751Z,60.18
2023-11-26T06:36:39.144Z,61.24
2023-11-26T06:39:05.541Z,61.74
2023-11-26T06:41:31.920Z,61.61
2023-11-26T06:43:58.286Z,61.86
2023-11-26T06:46:24.737Z,61.32
2023-11-26T06:48:51.168Z,61.51
2023-11-26T06:51:17.579Z,60.75
2023-11-26T06:53:43.967Z,60.50
2023-11-26T06:56:10.334Z,60.35
2023-11-26T06:58:36.712Z,60.80
2023-11-26T07:01:03.080Z,60.86
2023-11-26T07:03:29.578Z,59.48
2023-11-26T07:05:55.983Z,59.49
2023-11-26T07:08:22.384Z,59.96
2023-11-26T07:10:48.750Z,60.04
2023-11-26T07:13:15.131Z,60.12
2023-11-26T07:15:41.568Z,63.26
2023-11-26T07:18:07.976Z,60.71
2023-11-26T07:20:35.536Z,58.85
2023-11-26T07:23:01.997Z,60.44
2023-11-26T07:25:28.388Z,58.60
2023-11-26T07:27:54.765Z,58.10
2023-11-26T07:30:21.150Z,58.51
2023-11-26T07:32:47.634Z,59.95
2023-11-26T07:35:14.030Z,57.78
2023-11-26T07:37:40.448Z,58.93
2023-11-26T07:40:06.857Z,60.46
2023-11-26T07:42:33.274Z,58.27
2023-11-26T07:44:59.673Z,58.08
2023-11-26T07:47:26.065Z,60.83
2023-11-26T07:49:52.446Z,61.38
2023-11-26T07:52:18.835Z,58.60
2023-11-26T07:54:45.267Z,58.78
2023-11-26T07:57:11.700Z,58.98
2023-11-26T07:59:38.091Z,59.19
2023-11-26T08:02:04.502Z,58.62
2023-11-26T08:04:31.068Z,58.57
2023-11-26T08:06:57.508Z,59.26
2023-11-26T08:09:23.929Z,58.57
2023-11-26T08:11:50.302Z,59.11
2023-11-26T08:14:16.679Z,59.20
2023-11-26T08:16:43.089Z,58.25
2023-11-26T08:19:09.502Z,58.46
2023-11-26T08:21:36.282Z,58.46
2023-11-26T08:24:02.754Z,58.74
2023-11-26T08:26:29.298Z,59.31
2023-11-26T08:28:55.697Z,60.09
2023-11-26T08:31:22.143Z,59.13
2023-11-26T08:33:48.607Z,59.72
2023-11-26T08:36:15.036Z,59.00
2023-11-26T08:38:41.437Z,57.78
2023-11-26T08:41:07.830Z,58.07
2023-11-26T08:43:34.205Z,57.91
2023-11-26T08:46:00.634Z,58.45
2023-11-26T08:48:27.089Z,57.42
2023-11-26T08:50:53.487Z,57.37
2023-11-26T08:53:19.850Z,54.88
2023-11-26T08:55:46.249Z,56.63
2023-11-26T08:58:12.634Z,56.08
2023-11-26T09:00:39.053Z,53.79
2023-11-26T09:03:05.465Z,53.86
2023-11-26T09:05:31.893Z,54.39
2023-11-26T09:07:58.308Z,53.91
2023-11-26T09:10:24.690Z,54.26
2023-11-26T09:12:51.085Z,54.63
2023-11-26T09:15:17.583Z,55.11
2023-11-26T09:17:44.015Z,55.89
2023-11-26T09:20:10.395Z,55.82
2023-11-26T09:22:36.781Z,55.79
2023-11-26T09:25:03.155Z,55.76
2023-11-26T09:27:29.601Z,55.76
2023-11-26T09:29:56.058Z,55.91
2023-11-26T09:32:22.536Z,55.68
2023-11-26T09:34:50.918Z,55.33
2023-11-26T09:37:19.538Z,55.16
2023-11-26T09:39:45.947Z,55.22
2023-11-26T09:42:15.424Z,54.98
2023-11-26T09:44:42.552Z,55.04
2023-11-26T09:47:08.924Z,54.38
2023-11-26T09:49:35.298Z,54.01
2023-11-26T09:52:01.694Z,52.52
2023-11-26T09:54:28.098Z,52.64
2023-11-26T09:56:54.479Z,52.23
2023-11-26T09:59:20.872Z,52.01
2023-11-26T10:01:47.309Z,52.58
2023-11-26T10:04:13.801Z,53.15
2023-11-26T10:06:40.247Z,53.99
2023-11-26T10:09:06.643Z,53.12
2023-11-26T10:11:33.023Z,51.78
2023-11-26T10:13:59.397Z,52.29
2023-11-26T10:16:25.796Z,52.45
2023-11-26T10:18:52.196Z,52.14
2023-11-26T10:21:18.619Z,52.08
2023-11-26T10:23:45.118Z,52.18
2023-11-26T10:26:11.502Z,51.72
2023-11-26T10:28:37.866Z,51.65
2023-11-26T10:31:04.311Z,51.56
2023-11-26T10:33:30.884Z,51.57
2023-11-26T10:35:59.512Z,50.55
2023-11-26T10:38:26.190Z,50.58
2023-11-26T10:40:52.576Z,50.35
2023-11-26T10:43:18.942Z,50.20
2023-11-26T10:45:45.383Z,50.83
2023-11-26T10:48:12.981Z,51.25
2023-11-26T10:50:40.347Z,49.82
2023-11-26T10:53:06.746Z,50.79
2023-11-26T10:55:33.162Z,50.57
2023-11-26T10:57:59.599Z,51.40
2023-11-26T11:00:26.045Z,50.88
2023-11-26T11:02:52.533Z,51.19
2023-11-26T11:05:18.978Z,51.74
2023-11-26T11:07:45.412Z,52.31
2023-11-26T11:10:11.833Z,51.17
2023-11-26T11:12:38.284Z,51.03
2023-11-26T11:15:04.650Z,50.87
2023-11-26T11:17:31.303Z,50.27
2023-11-26T11:19:57.761Z,50.14
2023-11-26T11:22:24.125Z,51.13
2023-11-26T11:24:50.523Z,50.39
2023-11-26T11:27:16.958Z,50.79
2023-11-26T11:29:43.358Z,50.24
2023-11-26T11:32:09.717Z,49.91
2023-11-26T11:34:36.083Z,49.34
2023-11-26T11:37:02.582Z,49.97
2023-11-26T11:39:29.016Z,49.74
2023-11-26T11:41:55.405Z,50.04
2023-11-26T11:44:21.781Z,49.49
2023-11-26T11:46:51.160Z,49.81
2023-11-26T11:49:18.494Z,49.19
2023-11-26T11:51:44.891Z,48.56
2023-11-26T11:54:11.269Z,49.36
2023-11-26T11:56:37.659Z,49.49
2023-11-26T11:59:04.044Z,49.78
2023-11-26T12:01:30.428Z,49.40
2023-11-26T12:03:56.955Z,49.33
2023-11-26T12:06:23.416Z,49.46
2023-11-26T12:08:49.832Z,49.32
2023-11-26T12:11:16.209Z,48.81
2023-11-26T12:13:42.592Z,48.42
2023-11-26T12:16:09.037Z,48.10
2023-11-26T12:18:35.486Z,48.23
2023-11-26T12:21:01.881Z,48.36
2023-11-26T12:23:28.264Z,48.58
2023-11-26T12:25:54.648Z,48.43
2023-11-26T12:28:21.024Z,48.10
2023-11-26T12:30:47.467Z,48.33
2023-11-26T12:33:13.875Z,48.19
2023-11-26T12:35:40.459Z,48.26
2023-11-26T12:38:06.870Z,48.21
2023-11-26T12:40:33.243Z,48.58
2023-11-26T12:42:59.718Z,48.21
2023-11-26T12:45:26.187Z,48.27
2023-11-26T12:47:52.969Z,48.96
2023-11-26T12:50:19.465Z,49.22
2023-11-26T12:52:45.844Z,48.58
2023-11-26T12:55:12.211Z,49.41
2023-11-26T12:57:38.650Z,48.40
2023-11-26T13:00:05.031Z,49.10
2023-11-26T13:02:31.453Z,49.35
2023-11-26T13:04:57.862Z,47.98
2023-11-26T13:07:24.231Z,47.27
2023-11-26T13:09:50.703Z,48.61
2023-11-26T13:12:20.299Z,48.49
2023-11-26T13:14:46.840Z,48.35
2023-11-26T13:17:13.300Z,48.37
2023-11-26T13:19:39.695Z,49.80
2023-11-26T13:22:06.078Z,48.42
2023-11-26T13:24:32.481Z,48.05
2023-11-26T13:26:58.893Z,48.05
2023-11-26T13:29:25.274Z,47.96
2023-11-26T13:31:51.653Z,48.53
2023-11-26T13:34:18.146Z,47.95
2023-11-26T13:36:44.627Z,48.46
2023-11-26T13:39:11.016Z,49.16
2023-11-26T13:41:37.393Z,48.15
2023-11-26T13:44:03.778Z,48.70
2023-11-26T13:46:30.208Z,47.62
2023-11-26T13:48:56.628Z,48.25
2023-11-26T13:51:23.075Z,49.56
2023-11-26T13:53:49.490Z,49.06
2023-11-26T13:56:15.859Z,48.62
2023-11-26T13:58:42.293Z,48.42
2023-11-26T14:01:08.794Z,48.54
2023-11-26T14:03:35.434Z,48.02
2023-11-26T14:06:01.872Z,48.12
2023-11-26T14:08:28.255Z,48.00
2023-11-26T14:10:54.633Z,48.61
2023-11-26T14:13:21.008Z,49.65
2023-11-26T14:15:47.386Z,49.14
2023-11-26T14:18:13.851Z,48.62
2023-11-26T14:20:40.316Z,48.63
2023-11-26T14:23:06.695Z,48.46
2023-11-26T14:25:33.060Z,48.43
2023-11-26T14:27:59.475Z,48.24
2023-11-26T14:30:25.925Z,48.58
2023-11-26T14:32:52.366Z,48.52
2023-11-26T14:35:18.797Z,48.83
2023-11-26T14:37:45.166Z,49.38
2023-11-26T14:40:11.555Z,49.14
2023-11-26T14:42:38.289Z,48.98
2023-11-26T14:45:04.729Z,48.84
2023-11-26T14:47:31.145Z,49.45
2023-11-26T14:49:57.566Z,49.19
2023-11-26T14:52:23.926Z,49.25
2023-11-26T14:54:50.322Z,49.54
2023-11-26T14:57:16.689Z,49.11
2023-11-26T14:59:43.078Z,49.26
2023-11-26T15:02:09.521Z,49.57
2023-11-26T15:04:35.981Z,50.65
2023-11-26T15:07:02.394Z,49.85
2023-11-26T15:09:28.850Z,50.65
2023-11-26T15:11:55.288Z,50.61
2023-11-26T15:14:21.695Z,51.27
2023-11-26T15:16:48.177Z,51.97
2023-11-26T15:19:14.567Z,52.44
2023-11-26T15:21:40.966Z,52.90
2023-11-26T15:24:07.369Z,52.81
2023-11-26T15:26:33.768Z,52.80
2023-11-26T15:29:00.188Z,53.27
2023-11-26T15:31:26.571Z,52.62
2023-11-26T15:33:53.038Z,52.47
2023-11-26T15:36:19.488Z,52.24
2023-11-26T15:38:45.863Z,51.82
2023-11-26T15:41:12.236Z,51.66
2023-11-26T15:43:38.611Z,51.76
2023-11-26T15:46:05.047Z,52.41
2023-11-26T15:48:31.523Z,52.12
2023-11-26T15:50:57.963Z,52.35
2023-11-26T15:53:24.396Z,52.45
2023-11-26T15:55:50.787Z,52.46
2023-11-26T15:58:17.154Z,52.51
2023-11-26T16:00:43.555Z,52.66
2023-11-26T16:03:09.982Z,52.65
2023-11-26T16:05:36.390Z,52.68
2023-11-26T16:08:02.746Z,52.96
2023-11-26T16:10:29.119Z,53.58
2023-11-26T16:12:55.496Z,52.70
2023-11-26T16:15:21.872Z,52.97
2023-11-26T16:17:48.284Z,53.29
2023-11-26T16:20:14.665Z,53.08
2023-11-26T16:22:41.042Z,53.23
2023-11-26T16:25:07.465Z,53.24
2023-11-26T16:27:33.871Z,53.48
2023-11-26T16:30:00.663Z,53.37
2023-11-26T16:32:27.676Z,53.16
2023-11-26T16:34:54.049Z,53.33
2023-11-26T16:37:20.430Z,53.30
2023-11-26T16:39:46.854Z,53.49
2023-11-26T16:42:13.258Z,53.48
2023-11-26T16:44:39.649Z,53.57
2023-11-26T16:47:06.070Z,53.63
2023-11-26T16:49:32.472Z,53.35
2023-11-26T16:51:58.910Z,53.65
2023-11-26T16:54:25.334Z,54.05
2023-11-26T16:56:51.730Z,54.39
2023-11-26T16:59:18.107Z,55.02
2023-11-26T17:01:44.557Z,55.05
2023-11-26T17:04:11.009Z,54.96
2023-11-26T17:06:37.437Z,54.90
2023-11-26T17:09:03.848Z,55.34
2023-11-26T17:11:30.223Z,55.29
2023-11-26T17:13:56.621Z,55.57
2023-11-26T17:16:23.145Z,55.50
2023-11-26T17:18:49.984Z,55.75
2023-11-26T17:21:16.381Z,55.64
2023-11-26T17:23:47.435Z,55.91
2023-11-26T17:26:16.835Z,55.67
2023-11-26T17:28:43.212Z,55.52
2023-11-26T17:31:09.690Z,55.42
2023-11-26T17:33:36.129Z,55.30
2023-11-26T17:36:02.507Z,55.45
2023-11-26T17:38:28.870Z,55.53
2023-11-26T17:40:55.259Z,55.36
2023-11-26T17:43:21.684Z,55.68
2023-11-26T17:45:48.224Z,56.09
2023-11-26T17:48:14.664Z,56.65
2023-11-26T17:50:41.061Z,57.05
2023-11-26T17:53:10.715Z,57.58
2023-11-26T17:55:37.638Z,57.35
2023-11-26T17:58:04.259Z,56.91
2023-11-26T18:00:30.794Z,57.12
2023-11-26T18:02:57.176Z,57.10
2023-11-26T18:05:23.572Z,56.94
2023-11-26T18:07:49.948Z,57.14
2023-11-26T18:10:16.336Z,57.05
2023-11-26T18:12:42.752Z,57.10
2023-11-26T18:15:09.152Z,57.03
2023-11-26T18:17:35.537Z,56.73
2023-11-26T18:20:01.964Z,56.98
2023-11-26T18:22:28.360Z,56.68
2023-11-26T18:24:54.758Z,56.76
2023-11-26T18:27:21.161Z,56.79
2023-11-26T18:29:47.569Z,56.74
2023-11-26T18:32:13.945Z,57.06
2023-11-26T18:34:40.323Z,56.52
2023-11-26T18:37:06.750Z,56.54
2023-11-26T18:39:33.150Z,56.46
2023-11-26T18:41:59.544Z,56.64
2023-11-26T18:44:25.928Z,57.06
2023-11-26T18:46:52.334Z,57.15
2023-11-26T18:49:18.719Z,57.10
2023-11-26T18:51:45.128Z,57.35
2023-11-26T18:54:11.545Z,57.29
2023-11-26T18:56:37.924Z,57.25
2023-11-26T18:59:04.322Z,56.86
2023-11-26T19:01:30.737Z,57.37
2023-11-26T19:03:57.176Z,57.51
2023-11-26T19:06:23.573Z,58.03
2023-11-26T19:08:49.971Z,58.17
2023-11-26T19:11:16.374Z,58.30
2023-11-26T19:13:42.917Z,58.07
2023-11-26T19:16:09.373Z,58.31
2023-11-26T19:18:35.987Z,58.04
2023-11-26T19:21:02.387Z,58.75
2023-11-26T19:23:29.809Z,58.82
2023-11-26T19:25:56.224Z,58.58
2023-11-26T19:28:22.619Z,58.85
2023-11-26T19:30:49.024Z,58.74
2023-11-26T19:33:15.487Z,58.86
2023-11-26T19:35:41.906Z,59.08
2023-11-26T19:38:08.281Z,59.17
2023-11-26T19:40:37.351Z,58.89
2023-11-26T19:43:05.281Z,58.91
2023-11-26T19:45:31.696Z,58.86
2023-11-26T19:47:58.150Z,59.15
2023-11-26T19:50:24.550Z,59.18
2023-11-26T19:52:50.931Z,59.38
2023-11-26T19:55:17.355Z,59.33
2023-11-26T19:57:43.816Z,59.59
2023-11-26T20:00:10.205Z,59.60
2023-11-26T20:02:36.684Z,59.16
2023-11-26T20:05:03.190Z,59.49
2023-11-26T20:07:29.608Z,59.77
2023-11-26T20:09:56.048Z,59.95
2023-11-26T20:12:24.181Z,60.02
2023-11-26T20:14:52.452Z,60.55
2023-11-26T20:17:18.911Z,59.94
2023-11-26T20:19:45.384Z,60.69
2023-11-26T20:22:11.857Z,60.64
2023-11-26T20:24:38.355Z,61.02
2023-11-26T20:27:04.797Z,60.93
2023-11-26T20:29:31.176Z,60.77
2023-11-26T20:31:57.557Z,60.67
2023-11-26T20:34:23.939Z,60.70
2023-11-26T20:36:50.362Z,61.17
2023-11-26T20:39:16.761Z,61.25
2023-11-26T20:41:43.124Z,61.27
2023-11-26T20:44:09.494Z,61.17
2023-11-26T20:46:35.917Z,60.88
2023-11-26T20:49:02.339Z,60.86
2023-11-26T20:51:28.768Z,61.23
2023-11-26T20:53:55.171Z,61.20
2023-11-26T20:56:21.554Z,60.91
2023-11-26T20:58:47.935Z,61.05
2023-11-26T21:01:14.372Z,61.43
2023-11-26T21:03:40.823Z,61.65
2023-11-26T21:06:07.247Z,61.46
2023-11-26T21:08:33.643Z,61.36
2023-11-26T21:11:00.016Z,61.32
2023-11-26T21:13:26.398Z,61.77
2023-11-26T21:15:52.797Z,61.51
2023-11-26T21:18:19.182Z,61.79
2023-11-26T21:20:45.563Z,61.96
2023-11-26T21:23:11.947Z,61.55
2023-11-26T21:25:38.336Z,61.24
2023-11-26T21:28:04.735Z,60.65
2023-11-26T21:30:31.138Z,60.64
2023-11-26T21:32:57.520Z,61.40
2023-11-26T21:35:23.997Z,61.55
2023-11-26T21:37:50.526Z,61.19
2023-11-26T21:40:16.991Z,61.11
2023-11-26T21:42:43.515Z,61.39
2023-11-26T21:45:09.953Z,61.56
2023-11-26T21:47:36.439Z,61.51
2023-11-26T21:50:02.847Z,61.36
2023-11-26T21:52:29.260Z,61.35
2023-11-26T21:54:55.716Z,61.44
2023-11-26T21:57:22.114Z,61.60
2023-11-26T21:59:48.502Z,61.07
2023-11-26T22:02:15.104Z,61.11
2023-11-26T22:04:41.634Z,60.95
2023-11-26T22:07:08.035Z,60.60
2023-11-26T22:09:34.472Z,60.75
2023-11-26T22:12:00.849Z,60.69
2023-11-26T22:14:27.236Z,60.54
2023-11-26T22:16:53.619Z,61.17
2023-11-26T22:19:20.068Z,60.87
2023-11-26T22:21:46.511Z,61.21
2023-11-26T22:24:12.894Z,61.29
2023-11-26T22:26:39.324Z,60.74
2023-11-26T22:29:05.742Z,60.95
2023-11-26T22:31:32.239Z,60.97
2023-11-26T22:33:58.758Z,61.13
2023-11-26T22:36:25.166Z,61.19
2023-11-26T22:38:51.521Z,61.27
2023-11-26T22:41:17.900Z,61.31
2023-11-26T22:43:44.278Z,61.67
2023-11-26T22:46:10.717Z,61.68
2023-11-26T22:48:37.163Z,61.65
2023-11-26T22:51:03.544Z,61.67
2023-11-26T22:53:29.919Z,62.16
2023-11-26T22:55:56.294Z,62.12
2023-11-26T22:58:22.669Z,62.17
2023-11-26T23:00:49.128Z,61.92
2023-11-26T23:03:15.595Z,61.70
2023-11-26T23:05:42.060Z,61.63
2023-11-26T23:08:08.456Z,61.68
2023-11-26T23:10:34.901Z,61.72
2023-11-26T23:13:01.309Z,62.17
2023-11-26T23:15:27.700Z,61.85
2023-11-26T23:17:54.185Z,62.04
2023-11-26T23:20:20.610Z,62.28
2023-11-26T23:22:46.996Z,61.92
2023-11-26T23:25:13.416Z,62.20
2023-11-26T23:27:39.907Z,61.71
2023-11-26T23:30:06.330Z,61.99
2023-11-26T23:32:32.741Z,61.99
2023-11-26T23:34:59.113Z,62.03
2023-11-26T23:37:25.492Z,62.08
2023-11-26T23:39:51.908Z,62.05
2023-11-26T23:42:18.320Z,62.74
2023-11-26T23:44:44.685Z,62.41
2023-11-26T23:47:11.056Z,62.30
2023-11-26T23:49:37.422Z,62.52
2023-11-26T23:52:03.810Z,62.27
2023-11-26T23:54:30.210Z,62.37
2023-11-26T23:56:56.589Z,62.63
2023-11-26T23:59:22.970Z,62.42
